Time,TemperatureF,DewpointF,PressureIn,WindDirection,WindDirectionDegrees,WindSpeedMPH,WindSpeedGustMPH,Humidity,HourlyPrecipIn,Conditions,Clouds,dailyrainin,SolarRadiationWatts/m^2,SoftwareType,DateUTC
2016-02-09 00:02:00,23.4,20.9,29.69,West,270,8.1,8.1,90,0.00,-SN,,0.00,0.0,WeatherDisplay:10.37,2016-02-09 05:02:00,
2016-02-09 00:07:00,23.2,20.7,29.69,SW,225,4.6,4.6,90,0.00,-SN,,0.00,0.0,WeatherDisplay:10.37,2016-02-09 05:07:00,
2016-02-09 00:12:00,23.2,20.7,29.69,NE,45,4.6,4.6,90,0.00,-SN,,0.00,0.0,WeatherDisplay:10.37,2016-02-09 05:12:00,
2016-02-09 00:17:00,23.2,20.7,29.69,SW,225,3.5,3.5,90,0.00,-SN,,0.00,0.0,WeatherDisplay:10.37,2016-02-09 05:17:00,
2016-02-09 00:22:00,23.0,20.5,29.69,North,0,4.6,4.6,90,0.00,-SN,,0.00,0.0,WeatherDisplay:10.37,2016-02-09 05:22:00,
2016-02-09 00:27:00,22.6,20.4,29.68,WSW,248,5.8,5.8,91,0.00,-SN,,0.00,0.0,WeatherDisplay:10.37,2016-02-09 05:27:00,
2016-02-09 00:37:00,22.3,19.8,29.69,West,270,3.5,3.5,90,0.00,-SN,,0.00,0.0,WeatherDisplay:10.37,2016-02-09 05:37:00,
2016-02-09 00:42:00,22.3,19.8,29.69,SW,225,3.5,3.5,90,0.00,-SN,,0.00,0.0,WeatherDisplay:10.37,2016-02-09 05:42:00,
2016-02-09 00:47:00,22.3,19.8,29.69,West,270,3.5,3.5,90,0.00,-SN,,0.00,0.0,WeatherDisplay:10.37,2016-02-09 05:47:00,
2016-02-09 00:52:00,22.3,19.8,29.69,NW,315,3.5,3.5,90,0.00,-SN,,0.00,0.0,WeatherDisplay:10.37,2016-02-09 05:52:00,
2016-02-09 00:57:00,22.1,19.6,29.69,NW,315,4.6,4.6,90,0.00,-SN,,0.00,0.0,WeatherDisplay:10.37,2016-02-09 05:57:00,
2016-02-09 01:07:00,22.1,19.6,29.68,WSW,248,3.5,3.5,90,0.00,-SN,,0.00,0.0,WeatherDisplay:10.37,2016-02-09 06:07:00,
2016-02-09 01:12:00,21.9,19.4,29.68,West,270,2.3,2.3,90,0.00,-SN,,0.00,0.0,WeatherDisplay:10.37,2016-02-09 06:12:00,
2016-02-09 01:17:00,22.1,19.6,29.68,East,90,3.5,3.5,90,0.00,-SN,,0.00,0.0,WeatherDisplay:10.37,2016-02-09 06:17:00,
2016-02-09 01:22:00,22.1,19.6,29.69,South,180,3.5,3.5,90,0.00,-SN,,0.00,0.0,WeatherDisplay:10.37,2016-02-09 06:22:00,
2016-02-09 01:27:00,21.9,19.4,29.68,NW,315,4.6,4.6,90,0.00,-SN,,0.00,0.0,WeatherDisplay:10.37,2016-02-09 06:27:00,
2016-02-09 01:37:00,21.9,19.4,29.67,WNW,292,3.5,3.5,90,0.00,-SN,,0.00,0.0,WeatherDisplay:10.37,2016-02-09 06:37:00,
2016-02-09 01:42:00,21.9,19.2,29.67,NW,315,4.6,4.6,89,0.00,-SN,,0.00,0.0,WeatherDisplay:10.37,2016-02-09 06:42:00,
2016-02-09 01:47:00,21.9,19.2,29.68,NE,45,5.8,5.8,89,0.00,-SN,,0.00,0.0,WeatherDisplay:10.37,2016-02-09 06:47:00,
2016-02-09 01:57:00,21.7,19.0,29.67,NW,315,5.8,5.8,89,0.00,-SN,,0.00,0.0,WeatherDisplay:10.37,2016-02-09 06:57:00,
2016-02-09 02:02:00,21.9,19.2,29.67,North,0,1.2,1.2,89,0.00,-SN,,0.00,0.0,WeatherDisplay:10.37,2016-02-09 07:02:00,
2016-02-09 02:07:00,21.9,19.2,29.67,NE,45,3.5,3.5,89,0.00,-SN,,0.00,0.0,WeatherDisplay:10.37,2016-02-09 07:07:00,
2016-02-09 02:12:00,21.9,19.2,29.67,South,180,3.5,4.5,89,0.00,-SN,,0.00,0.0,WeatherDisplay:10.37,2016-02-09 07:12:00,
2016-02-09 02:17:00,21.7,19.0,29.67,South,180,6.9,6.9,89,0.00,-SN,,0.00,0.0,WeatherDisplay:10.37,2016-02-09 07:17:00,
2016-02-09 02:22:00,21.7,19.0,29.67,SW,225,3.5,3.5,89,0.00,-SN,,0.00,0.0,WeatherDisplay:10.37,2016-02-09 07:22:00,
2016-02-09 02:27:00,21.6,18.8,29.67,East,90,3.5,3.5,89,0.00,-SN,,0.00,0.0,WeatherDisplay:10.37,2016-02-09 07:27:00,
2016-02-09 02:32:00,21.6,18.8,29.67,NE,45,4.6,4.6,89,0.00,-SN,,0.00,0.0,WeatherDisplay:10.37,2016-02-09 07:32:00,
2016-02-09 02:37:00,21.6,18.6,29.67,West,270,3.5,3.5,88,0.00,-SN,,0.00,0.0,WeatherDisplay:10.37,2016-02-09 07:37:00,
2016-02-09 02:42:00,21.4,18.4,29.67,NW,315,3.5,3.5,88,0.00,-SN,,0.00,0.0,WeatherDisplay:10.37,2016-02-09 07:42:00,
2016-02-09 02:47:00,21.4,18.4,29.67,South,180,9.2,9.2,88,0.00,-SN,,0.00,0.0,WeatherDisplay:10.37,2016-02-09 07:47:00,
2016-02-09 02:52:00,21.2,18.2,29.67,NW,315,8.1,8.1,88,0.00,-SN,,0.00,0.0,WeatherDisplay:10.37,2016-02-09 07:52:00,
2016-02-09 02:57:00,21.2,18.2,29.67,South,180,3.5,3.5,88,0.00,-SN,,0.00,0.0,WeatherDisplay:10.37,2016-02-09 07:57:00,
2016-02-09 03:02:00,21.2,18.2,29.67,SW,225,4.6,4.6,88,0.00,-SN,,0.00,0.0,WeatherDisplay:10.37,2016-02-09 08:02:00,
2016-02-09 03:07:00,21.2,18.2,29.67,SW,225,4.6,4.6,88,0.00,-SN,,0.00,0.0,WeatherDisplay:10.37,2016-02-09 08:07:00,
2016-02-09 03:12:00,21.0,18.3,29.67,East,90,3.5,3.5,89,0.00,-SN,,0.00,0.0,WeatherDisplay:10.37,2016-02-09 08:12:00,
2016-02-09 03:17:00,21.0,18.3,29.67,SW,225,6.9,6.9,89,0.00,-SN,,0.00,0.0,WeatherDisplay:10.37,2016-02-09 08:17:00,
2016-02-09 03:22:00,21.0,18.3,29.67,SW,225,8.1,8.1,89,0.00,-SN,,0.00,0.0,WeatherDisplay:10.37,2016-02-09 08:22:00,
2016-02-09 03:27:00,20.8,17.8,29.67,SE,135,5.8,5.8,88,0.00,-SN,,0.00,0.0,WeatherDisplay:10.37,2016-02-09 08:27:00,
2016-02-09 03:52:00,20.8,17.8,29.66,SW,225,3.5,3.5,88,0.00,-SN,,0.00,0.0,WeatherDisplay:10.37,2016-02-09 08:52:00,
2016-02-09 03:57:00,20.8,17.8,29.66,South,180,4.6,4.6,88,0.00,-SN,,0.00,0.0,WeatherDisplay:10.37,2016-02-09 08:57:00,
2016-02-09 04:02:00,20.7,17.7,29.65,SW,225,6.9,6.9,88,0.00,-SN,,0.00,0.0,WeatherDisplay:10.37,2016-02-09 09:02:00,
2016-02-09 04:07:00,20.5,17.5,29.66,SW,225,4.6,4.6,88,0.00,-SN,,0.00,0.0,WeatherDisplay:10.37,2016-02-09 09:07:00,
2016-02-09 04:12:00,20.5,17.5,29.65,SW,225,4.6,4.6,88,0.00,-SN,,0.00,0.0,WeatherDisplay:10.37,2016-02-09 09:12:00,
2016-02-09 04:17:00,20.5,17.5,29.65,SW,225,5.8,5.8,88,0.00,-SN,,0.00,0.0,WeatherDisplay:10.37,2016-02-09 09:17:00,
2016-02-09 04:22:00,20.5,17.5,29.65,NE,45,5.8,5.8,88,0.00,-SN,,0.00,0.0,WeatherDisplay:10.37,2016-02-09 09:22:00,
2016-02-09 04:27:00,20.5,17.5,29.65,West,270,4.6,4.6,88,0.00,-SN,,0.00,0.0,WeatherDisplay:10.37,2016-02-09 09:27:00,
2016-02-09 04:32:00,20.5,17.5,29.66,SW,225,3.5,3.5,88,0.00,-SN,,0.00,0.0,WeatherDisplay:10.37,2016-02-09 09:32:00,
2016-02-09 04:37:00,20.5,17.5,29.67,NW,315,8.1,8.1,88,0.00,-SN,,0.00,0.0,WeatherDisplay:10.37,2016-02-09 09:37:00,
2016-02-09 04:42:00,20.5,17.5,29.66,SW,225,3.5,3.5,88,0.00,-SN,,0.00,0.0,WeatherDisplay:10.37,2016-02-09 09:42:00,
2016-02-09 04:47:00,20.5,17.5,29.67,SW,225,3.5,3.5,88,0.00,-SN,,0.00,0.0,WeatherDisplay:10.37,2016-02-09 09:47:00,
2016-02-09 04:52:00,20.5,17.5,29.67,SW,225,3.5,3.5,88,0.00,-SN,,0.00,0.0,WeatherDisplay:10.37,2016-02-09 09:52:00,
2016-02-09 04:57:00,20.5,17.5,29.67,SW,225,3.5,3.5,88,0.00,-SN,,0.00,0.0,WeatherDisplay:10.37,2016-02-09 09:57:00,
2016-02-09 05:02:00,20.5,17.5,29.67,SW,225,3.5,3.5,88,0.00,OVC,,0.00,0.0,WeatherDisplay:10.37,2016-02-09 10:02:00,
2016-02-09 05:07:00,20.7,17.7,29.66,SW,225,4.6,4.6,88,0.00,OVC,,0.00,0.0,WeatherDisplay:10.37,2016-02-09 10:07:00,
2016-02-09 05:22:00,20.7,17.7,29.67,NW,315,4.6,4.6,88,0.00,OVC,,0.00,0.0,WeatherDisplay:10.37,2016-02-09 10:22:00,
2016-02-09 05:27:00,20.7,17.7,29.67,NW,315,2.3,2.3,88,0.00,OVC,,0.00,0.0,WeatherDisplay:10.37,2016-02-09 10:27:00,
2016-02-09 05:32:00,20.7,17.7,29.67,West,270,3.5,3.5,88,0.00,OVC,,0.00,0.0,WeatherDisplay:10.37,2016-02-09 10:32:00,
2016-02-09 05:37:00,20.7,17.7,29.67,SW,225,6.9,6.9,88,0.00,OVC,,0.00,0.0,WeatherDisplay:10.37,2016-02-09 10:37:00,
2016-02-09 05:42:00,20.5,17.5,29.67,WSW,248,10.4,10.4,88,0.00,-SN,,0.00,0.0,WeatherDisplay:10.37,2016-02-09 10:42:00,
2016-02-09 05:47:00,20.5,17.5,29.67,NW,315,4.6,0.0,88,0.00,-SN,,0.00,0.0,WeatherDisplay:10.37,2016-02-09 10:47:00,
2016-02-09 05:52:00,20.5,17.5,29.67,South,180,5.8,5.8,88,0.00,-SN,,0.00,0.0,WeatherDisplay:10.37,2016-02-09 10:52:00,
2016-02-09 05:57:00,20.5,17.5,29.67,South,180,4.6,4.6,88,0.00,-SN,,0.00,0.0,WeatherDisplay:10.37,2016-02-09 10:57:00,
2016-02-09 06:02:00,20.5,17.5,29.67,South,180,3.5,4.5,88,0.00,-SN,,0.00,0.0,WeatherDisplay:10.37,2016-02-09 11:02:00,
2016-02-09 06:07:00,20.5,17.5,29.67,WSW,248,10.4,10.4,88,0.00,-SN,,0.00,0.0,WeatherDisplay:10.37,2016-02-09 11:07:00,
2016-02-09 06:12:00,20.3,17.3,29.68,SW,225,4.6,4.6,88,0.00,-SN,,0.00,0.0,WeatherDisplay:10.37,2016-02-09 11:12:00,
2016-02-09 06:17:00,20.3,17.3,29.68,South,180,4.6,4.6,88,0.00,-SN,,0.00,0.0,WeatherDisplay:10.37,2016-02-09 11:17:00,
2016-02-09 06:22:00,20.3,17.3,29.69,SW,225,5.8,5.8,88,0.00,-SN,,0.00,0.0,WeatherDisplay:10.37,2016-02-09 11:22:00,
2016-02-09 06:27:00,20.3,17.3,29.68,SW,225,3.5,3.5,88,0.00,-SN,,0.00,0.0,WeatherDisplay:10.37,2016-02-09 11:27:00,
2016-02-09 06:32:00,20.3,17.3,29.68,SW,225,5.8,5.8,88,0.00,-SN,,0.00,0.0,WeatherDisplay:10.37,2016-02-09 11:32:00,
2016-02-09 06:37:00,20.3,17.3,29.68,SSW,202,4.6,4.6,88,0.00,-SN,,0.00,0.0,WeatherDisplay:10.37,2016-02-09 11:37:00,
2016-02-09 06:42:00,20.3,17.3,29.69,SSW,202,3.5,3.5,88,0.00,-SN,,0.00,0.0,WeatherDisplay:10.37,2016-02-09 11:42:00,
2016-02-09 06:47:00,20.3,17.3,29.68,South,180,5.8,5.8,88,0.00,-SN,,0.00,0.0,WeatherDisplay:10.37,2016-02-09 11:47:00,
2016-02-09 06:52:00,20.3,17.3,29.69,West,270,4.6,5.4,88,0.00,-SN,,0.00,0.0,WeatherDisplay:10.37,2016-02-09 11:52:00,
2016-02-09 06:57:00,20.3,17.3,29.69,SW,225,6.9,6.9,88,0.00,-SN,,0.00,0.0,WeatherDisplay:10.37,2016-02-09 11:57:00,
2016-02-09 07:02:00,20.3,17.3,29.69,SW,225,4.6,4.6,88,0.00,-SN,,0.00,0.0,WeatherDisplay:10.37,2016-02-09 12:02:00,
2016-02-09 07:12:00,20.3,17.3,29.69,West,270,3.5,3.5,88,0.00,-SN,,0.00,0.0,WeatherDisplay:10.37,2016-02-09 12:12:00,
2016-02-09 07:17:00,20.3,17.3,29.69,South,180,5.8,5.8,88,0.00,-SN,,0.00,0.0,WeatherDisplay:10.37,2016-02-09 12:17:00,
2016-02-09 07:22:00,20.3,17.3,29.70,South,180,5.8,5.8,88,0.00,-SN,,0.00,0.0,WeatherDisplay:10.37,2016-02-09 12:22:00,